createdAt,value
2022-12-18T00:02:13.867Z,102884.13
2022-12-18T00:04:40.560Z,102880.66
2022-12-18T00:07:07.538Z,102885.09
2022-12-18T00:09:39.285Z,102885.59
2022-12-18T00:14:45.578Z,102893.09
2022-12-18T00:17:12.267Z,102891.81
2022-12-18T00:19:38.989Z,102899.91
2022-12-18T00:22:07.024Z,102899.91
2022-12-18T00:24:33.602Z,102900.00
2022-12-18T00:27:00.166Z,102886.97
2022-12-18T00:29:26.729Z,102896.16
2022-12-18T00:31:53.324Z,102886.97
2022-12-18T00:34:19.999Z,102884.56
2022-12-18T00:36:48.832Z,102881.28
2022-12-18T00:39:15.576Z,102877.66
2022-12-18T00:42:00.629Z,102878.47
2022-12-18T00:44:27.203Z,102870.56
2022-12-18T00:46:53.789Z,102868.66
2022-12-18T00:49:21.218Z,102879.56
2022-12-18T00:51:48.930Z,102874.09
2022-12-18T00:54:16.035Z,102883.47
2022-12-18T00:56:48.980Z,102882.75
2022-12-18T00:59:17.847Z,102885.81
2022-12-18T01:01:45.761Z,102888.50
2022-12-18T01:04:12.660Z,102877.97
2022-12-18T01:06:39.283Z,102882.78
2022-12-18T01:09:06.991Z,102876.78
2022-12-18T01:11:33.582Z,102879.38
2022-12-18T01:14:03.472Z,102875.28
2022-12-18T01:16:30.104Z,102869.03
2022-12-18T01:18:56.807Z,102876.16
2022-12-18T01:21:25.107Z,102877.84
2022-12-18T01:23:56.774Z,102878.72
2022-12-18T01:26:24.362Z,102880.56
2022-12-18T01:28:50.928Z,102883.25
2022-12-18T01:31:29.150Z,102877.41
2022-12-18T01:33:56.997Z,102879.25
2022-12-18T01:36:29.713Z,102882.06
2022-12-18T01:38:57.301Z,102889.41
2022-12-18T01:41:27.619Z,102890.53
2022-12-18T01:43:58.296Z,102898.88
2022-12-18T01:46:28.661Z,102899.28
2022-12-18T01:49:01.311Z,102903.56
2022-12-18T01:51:31.510Z,102903.91
2022-12-18T01:54:00.353Z,102909.56
2022-12-18T01:56:27.116Z,102902.72
2022-12-18T01:59:05.634Z,102899.31
2022-12-18T02:01:33.541Z,102904.81
2022-12-18T02:04:26.357Z,102902.88
2022-12-18T02:07:03.736Z,102899.66
2022-12-18T02:09:40.218Z,102909.72
2022-12-18T02:12:16.718Z,102915.84
2022-12-18T02:15:04.935Z,102912.44
2022-12-18T02:17:55.601Z,102916.84
2022-12-18T02:20:41.918Z,102921.25
2022-12-18T02:23:26.616Z,102928.47
2022-12-18T02:26:19.704Z,102916.97
2022-12-18T02:29:12.858Z,102930.44
2022-12-18T02:32:08.959Z,102928.59
2022-12-18T02:34:39.813Z,102923.94
2022-12-18T02:37:11.935Z,102916.38
2022-12-18T02:39:40.866Z,102917.81
2022-12-18T02:42:10.491Z,102915.88
2022-12-18T02:44:47.214Z,102929.00
2022-12-18T02:47:15.837Z,102929.00
2022-12-18T02:50:00.594Z,102944.91
2022-12-18T02:53:11.039Z,102938.91
2022-12-18T02:56:03.884Z,102935.38
2022-12-18T02:58:30.362Z,102944.66
2022-12-18T03:01:09.040Z,102940.13
2022-12-18T03:03:53.741Z,102942.81
2022-12-18T03:06:45.628Z,102949.94
2022-12-18T03:09:19.021Z,102955.44
2022-12-18T03:12:12.344Z,102952.16
2022-12-18T03:14:41.806Z,102961.09
2022-12-18T03:17:16.607Z,102959.00
2022-12-18T03:19:46.461Z,102960.84
2022-12-18T03:22:14.433Z,102959.00
2022-12-18T03:24:41.283Z,102959.00
2022-12-18T03:27:14.241Z,102961.69
2022-12-18T03:30:08.442Z,102958.16
2022-12-18T03:32:43.282Z,102951.16
2022-12-18T03:35:14.120Z,102958.88
2022-12-18T03:37:41.054Z,102950.78
2022-12-18T03:40:08.154Z,102945.91
2022-12-18T03:43:03.091Z,102948.34
2022-12-18T03:45:47.034Z,102948.47
2022-12-18T03:48:52.816Z,102949.19
2022-12-18T03:51:24.427Z,102947.03
2022-12-18T03:53:58.860Z,102943.34
2022-12-18T03:56:30.626Z,102954.84
2022-12-18T03:59:00.411Z,102959.25
2022-12-18T04:01:34.025Z,102956.81
2022-12-18T04:04:02.958Z,102968.34
2022-12-18T04:06:30.850Z,102963.91
2022-12-18T04:08:59.018Z,102960.84
2022-12-18T04:11:26.091Z,102962.56
2022-12-18T04:13:57.060Z,102962.44
2022-12-18T04:16:23.901Z,102961.84
2022-12-18T04:18:50.522Z,102966.97
2022-12-18T04:21:17.087Z,102966.13
2022-12-18T04:23:43.814Z,102960.25
2022-12-18T04:26:10.466Z,102960.00
2022-12-18T04:28:37.100Z,102958.41
2022-12-18T04:31:03.746Z,102967.09
2022-12-18T04:33:30.408Z,102973.59
2022-12-18T04:35:56.984Z,102957.56
2022-12-18T04:38:23.564Z,102947.88
2022-12-18T04:40:50.132Z,102957.41
2022-12-18T04:43:17.027Z,102962.81
2022-12-18T04:45:43.720Z,102962.09
2022-12-18T04:48:10.320Z,102961.69
2022-12-18T04:50:37.432Z,102953.00
2022-12-18T04:53:04.096Z,102968.94
2022-12-18T04:55:30.966Z,102970.66
2022-12-18T04:57:57.568Z,102964.41
2022-12-18T05:00:24.218Z,102976.66
2022-12-18T05:02:51.023Z,102984.13
2022-12-18T05:05:17.803Z,102991.22
2022-12-18T05:07:44.407Z,102993.69
2022-12-18T05:10:11.108Z,102998.38
2022-12-18T05:12:59.327Z,103005.56
2022-12-18T05:15:32.973Z,103007.31
2022-12-18T05:18:00.183Z,103004.84
2022-12-18T05:20:27.631Z,102989.91
2022-12-18T05:22:54.239Z,102992.59
2022-12-18T05:25:21.753Z,102998.59
2022-12-18T05:27:48.726Z,103004.22
2022-12-18T05:30:16.839Z,103006.66
2022-12-18T05:32:43.944Z,103005.81
2022-12-18T05:35:11.873Z,103005.81
2022-12-18T05:37:42.983Z,102993.44
2022-12-18T05:40:10.952Z,103010.59
2022-12-18T05:42:37.829Z,103003.63
2022-12-18T05:45:05.888Z,103005.47
2022-12-18T05:47:32.525Z,103015.25
2022-12-18T05:49:59.155Z,103018.09
2022-12-18T05:52:25.741Z,103024.41
2022-12-18T05:54:52.332Z,103016.97
2022-12-18T05:57:18.884Z,103012.56
2022-12-18T05:59:45.688Z,103014.41
2022-12-18T06:02:12.392Z,103016.97
2022-12-18T06:04:39.083Z,103025.19
2022-12-18T06:07:05.664Z,103032.50
2022-12-18T06:09:33.011Z,103039.41
2022-12-18T06:11:59.790Z,103036.09
2022-12-18T06:14:26.618Z,103036.69
2022-12-18T06:16:53.369Z,103042.94
2022-12-18T06:19:19.963Z,103038.53
2022-12-18T06:21:46.642Z,103037.81
2022-12-18T06:24:13.306Z,103037.44
2022-12-18T06:26:40.150Z,103045.28
2022-12-18T06:29:07.130Z,103045.28
2022-12-18T06:31:34.103Z,103049.69
2022-12-18T06:34:03.803Z,103049.69
2022-12-18T06:36:30.710Z,103052.38
2022-12-18T06:38:58.600Z,103057.88
2022-12-18T06:41:25.308Z,103066.09
2022-12-18T06:43:55.563Z,103069.03
2022-12-18T06:46:24.941Z,103078.84
2022-12-18T06:48:51.730Z,103093.91
2022-12-18T06:51:22.894Z,103074.44
2022-12-18T06:53:49.838Z,103080.81
2022-12-18T06:56:16.956Z,103083.09
2022-12-18T06:58:43.600Z,103081.78
2022-12-18T07:01:12.469Z,103084.34
2022-12-18T07:03:43.162Z,103082.00
2022-12-18T07:06:16.276Z,103096.25
2022-12-18T07:08:42.847Z,103092.44
2022-12-18T07:11:09.416Z,103088.78
2022-12-18T07:13:36.083Z,103094.22
2022-12-18T07:16:25.279Z,103095.19
2022-12-18T07:18:52.819Z,103097.75
2022-12-18T07:21:21.123Z,103102.28
2022-12-18T07:23:49.064Z,103105.59
2022-12-18T07:26:18.414Z,103097.63
2022-12-18T07:28:45.202Z,103097.88
2022-12-18T07:31:18.315Z,103095.53
2022-12-18T07:33:46.388Z,103086.00
2022-12-18T07:36:13.782Z,103092.13
2022-12-18T07:38:40.611Z,103089.66
2022-12-18T07:41:13.328Z,103092.25
2022-12-18T07:43:41.781Z,103099.47
2022-12-18T07:46:10.259Z,103091.63
2022-12-18T07:48:36.898Z,103110.63
2022-12-18T07:51:06.210Z,103103.88
2022-12-18T07:53:34.192Z,103105.25
2022-12-18T07:56:26.469Z,103094.69
2022-12-18T07:58:49.938Z,103095.53
2022-12-18T08:01:16.684Z,103094.81
2022-12-18T08:03:43.868Z,103103.63
2022-12-18T08:06:11.343Z,103093.81
2022-12-18T08:08:38.420Z,103092.22
2022-12-18T08:11:05.143Z,103089.78
2022-12-18T08:13:31.796Z,103092.81
2022-12-18T08:16:07.294Z,103098.22
2022-12-18T08:18:35.380Z,103096.50
2022-12-18T08:21:12.912Z,103094.66
2022-12-18T08:23:43.112Z,103094.06
2022-12-18T08:26:11.369Z,103101.16
2022-12-18T08:28:38.015Z,103106.81
2022-12-18T08:31:04.988Z,103101.53
2022-12-18T08:33:32.390Z,103102.59
2022-12-18T08:36:02.887Z,103102.41
2022-12-18T08:38:29.624Z,103095.41
2022-12-18T08:41:04.257Z,103089.78
2022-12-18T08:43:49.453Z,103092.19
2022-12-18T08:46:20.344Z,103097.34
2022-12-18T08:48:48.027Z,103105.22
2022-12-18T08:51:17.231Z,103109.75
2022-12-18T08:53:45.340Z,103107.78
2022-12-18T08:56:12.762Z,103114.88
2022-12-18T08:58:39.566Z,103118.56
2022-12-18T09:01:08.338Z,103116.84
2022-12-18T09:03:34.967Z,103115.75
2022-12-18T09:06:01.762Z,103116.22
2022-12-18T09:08:29.025Z,103117.84
2022-12-18T09:10:56.145Z,103119.31
2022-12-18T09:13:23.290Z,103128.84
2022-12-18T09:15:52.948Z,103126.91
2022-12-18T09:18:21.352Z,103144.06
2022-12-18T09:20:48.097Z,103152.03
2022-12-18T09:23:14.937Z,103156.69
2022-12-18T09:25:41.767Z,103162.06
2022-12-18T09:28:12.082Z,103158.50
2022-12-18T09:30:40.273Z,103165.75
2022-12-18T09:33:07.002Z,103167.34
2022-12-18T09:35:37.060Z,103171.13
2022-12-18T09:38:03.668Z,103166.59
2022-12-18T09:40:36.268Z,103169.28
2022-12-18T09:43:07.337Z,103167.81
2022-12-18T09:45:45.615Z,103166.72
2022-12-18T09:48:24.161Z,103165.88
2022-12-18T09:50:53.271Z,103166.13
2022-12-18T09:53:27.646Z,103159.75
2022-12-18T09:55:55.743Z,103152.63
2022-12-18T09:58:49.685Z,103156.06
2022-12-18T10:01:22.013Z,103150.66
2022-12-18T10:03:48.872Z,103144.66
2022-12-18T10:06:23.240Z,103145.41
2022-12-18T10:09:22.825Z,103140.13
2022-12-18T10:11:58.511Z,103131.19
2022-12-18T10:14:34.252Z,103136.34
2022-12-18T10:17:38.390Z,103121.13
2022-12-18T10:20:16.969Z,103111.34
2022-12-18T10:23:19.157Z,103109.50
2022-12-18T10:25:58.817Z,103103.38
2022-12-18T10:28:26.817Z,103089.13
2022-12-18T10:30:53.463Z,103086.22
2022-12-18T10:33:23.841Z,103096.03
2022-12-18T10:35:52.023Z,103102.28
2022-12-18T10:38:18.543Z,103111.22
2022-12-18T10:40:58.693Z,103101.41
2022-12-18T10:43:31.339Z,103099.19
2022-12-18T10:46:09.954Z,103100.06
2022-12-18T10:48:48.488Z,103089.41
2022-12-18T10:51:34.867Z,103092.81
2022-12-18T10:54:01.401Z,103084.25
2022-12-18T10:56:32.080Z,103078.00
2022-12-18T10:59:05.119Z,103082.16
2022-12-18T11:01:56.262Z,103066.25
2022-12-18T11:04:33.479Z,103072.38
2022-12-18T11:07:01.281Z,103067.56
2022-12-18T11:09:33.380Z,103070.19
2022-12-18T11:12:15.626Z,103069.19
2022-12-18T11:14:46.533Z,103070.78
2022-12-18T11:17:25.792Z,103077.16
2022-12-18T11:19:59.006Z,103057.16
2022-12-18T11:22:31.694Z,103053.03
2022-12-18T11:25:32.765Z,103051.03
2022-12-18T11:28:04.608Z,103041.97
2022-12-18T11:30:36.503Z,103046.63
2022-12-18T11:33:19.919Z,103050.19
2022-12-18T11:35:46.599Z,103052.28
2022-12-18T11:38:35.550Z,103037.44
2022-12-18T11:41:22.334Z,103041.38
2022-12-18T11:43:56.816Z,103050.31
2022-12-18T11:46:37.094Z,103046.63
2022-12-18T11:49:18.284Z,103043.81
2022-12-18T11:52:10.081Z,103045.06
2022-12-18T11:54:37.331Z,103051.50
2022-12-18T11:57:25.082Z,103059.88
2022-12-18T12:00:10.135Z,103054.59
2022-12-18T12:03:05.081Z,103048.22
2022-12-18T12:06:06.714Z,103048.47
2022-12-18T12:09:13.295Z,103046.50
2022-12-18T12:12:03.020Z,103048.94
2022-12-18T12:14:52.614Z,103055.34
2022-12-18T12:17:28.119Z,103063.03
2022-12-18T12:20:03.593Z,103062.94
2022-12-18T12:22:57.455Z,103057.78
2022-12-18T12:25:36.509Z,103056.78
2022-12-18T12:28:40.333Z,103055.34
2022-12-18T12:31:22.314Z,103053.00
2022-12-18T12:34:03.673Z,103058.13
2022-12-18T12:36:37.980Z,103061.47
2022-12-18T12:39:41.625Z,103063.16
2022-12-18T12:42:39.511Z,103064.88
2022-12-18T12:45:07.841Z,103073.34
2022-12-18T12:47:41.071Z,103070.53
2022-12-18T12:50:16.205Z,103073.22
2022-12-18T12:52:48.348Z,103084.00
2022-12-18T12:55:35.162Z,103087.31
2022-12-18T12:58:33.267Z,103096.63
2022-12-18T13:01:11.284Z,103090.09
2022-12-18T13:03:57.794Z,103100.31
2022-12-18T13:06:49.204Z,103095.91
2022-12-18T13:09:16.474Z,103085.50
2022-12-18T13:12:05.378Z,103090.50
2022-12-18T13:14:40.710Z,103080.69
2022-12-18T13:17:22.672Z,103074.94
2022-12-18T13:20:16.990Z,103057.41
2022-12-18T13:22:49.931Z,103056.56
2022-12-18T13:25:35.385Z,103053.63
2022-12-18T13:28:15.485Z,103056.19
2022-12-18T13:30:43.381Z,103061.59
2022-12-18T13:33:18.812Z,103071.50
2022-12-18T13:35:48.446Z,103079.34
2022-12-18T13:38:28.588Z,103076.03
2022-12-18T13:40:57.717Z,103076.16
2022-12-18T13:43:29.526Z,103064.94
2022-12-18T13:46:07.616Z,103071.25
2022-12-18T13:48:38.814Z,103067.34
2022-12-18T13:51:11.805Z,103071.38
2022-12-18T13:53:50.824Z,103075.34
2022-12-18T13:56:18.977Z,103074.91
2022-12-18T13:58:46.196Z,103070.53
2022-12-18T14:01:24.323Z,103067.34
2022-12-18T14:04:11.362Z,103071.19
2022-12-18T14:06:38.731Z,103062.16
2022-12-18T14:09:06.194Z,103035.22
2022-12-18T14:11:36.189Z,103028.59
2022-12-18T14:14:06.644Z,103045.13
2022-12-18T14:16:33.339Z,103047.94
2022-12-18T14:19:05.008Z,103045.25
2022-12-18T14:21:47.500Z,103030.91
2022-12-18T14:24:23.099Z,103035.44
2022-12-18T14:26:51.366Z,103038.16
2022-12-18T14:29:29.811Z,103042.94
2022-12-18T14:32:17.521Z,103039.13
2022-12-18T14:34:55.138Z,103037.41
2022-12-18T14:37:27.280Z,103028.59
2022-12-18T14:40:11.016Z,103035.81
2022-12-18T14:42:38.465Z,103030.19
2022-12-18T14:45:41.059Z,103025.78
2022-12-18T14:48:19.056Z,103010.72
2022-12-18T14:51:23.310Z,103013.16
2022-12-18T14:54:03.596Z,103009.47
2022-12-18T14:56:36.275Z,103007.53
2022-12-18T14:59:16.980Z,103001.16
2022-12-18T15:02:16.794Z,102994.03
2022-12-18T15:04:45.008Z,102987.06
2022-12-18T15:07:22.875Z,102988.53
2022-12-18T15:10:12.485Z,102983.03
2022-12-18T15:12:49.377Z,102985.75
2022-12-18T15:15:34.760Z,102975.06
2022-12-18T15:18:03.812Z,102969.66
2022-12-18T15:20:40.291Z,102970.66
2022-12-18T15:23:16.226Z,102975.31
2022-12-18T15:25:44.032Z,102988.53
2022-12-18T15:28:24.838Z,102999.69
2022-12-18T15:31:23.396Z,103010.47
2022-12-18T15:33:53.939Z,103017.56
2022-12-18T15:36:26.563Z,103031.03
2022-12-18T15:39:02.923Z,103026.63
2022-12-18T15:41:36.810Z,103022.72
2022-12-18T15:44:04.326Z,103014.63
2022-12-18T15:46:31.866Z,103011.84
2022-12-18T15:49:02.259Z,103005.69
2022-12-18T15:51:35.502Z,103003.13
2022-12-18T15:54:10.366Z,103002.50
2022-12-18T15:56:55.551Z,103002.38
2022-12-18T15:59:24.039Z,102996.50
2022-12-18T16:01:54.055Z,102993.81
2022-12-18T16:04:22.190Z,102996.25
2022-12-18T16:09:37.395Z,102984.97
2022-12-18T16:12:04.308Z,102984.13
2022-12-18T16:14:31.846Z,102991.34
2022-12-18T16:17:02.032Z,102992.19
2022-12-18T16:19:29.733Z,102987.91
2022-12-18T16:21:58.820Z,102987.66
2022-12-18T16:24:28.540Z,102979.50
2022-12-18T16:26:58.712Z,102969.56
2022-12-18T16:29:28.337Z,102962.22
2022-12-18T16:31:59.484Z,102952.41
2022-12-18T16:34:29.670Z,102947.03
2022-12-18T16:37:05.151Z,102959.50
2022-12-18T16:39:34.322Z,102941.50
2022-12-18T16:42:05.700Z,102950.69
2022-12-18T16:44:33.806Z,102950.56
2022-12-18T16:47:02.929Z,102946.91
2022-12-18T16:49:30.505Z,102943.09
2022-12-18T16:51:57.347Z,102942.50
2022-12-18T16:54:24.263Z,102940.78
2022-12-18T16:56:51.821Z,102941.50
2022-12-18T16:59:19.119Z,102936.97
2022-12-18T17:01:47.285Z,102932.44
2022-12-18T17:04:14.684Z,102935.88
2022-12-18T17:06:44.058Z,102934.03
2022-12-18T17:09:15.973Z,102939.16
2022-12-18T17:11:43.735Z,102936.47
2022-12-18T17:14:14.118Z,102942.63
2022-12-18T17:16:40.789Z,102942.63
2022-12-18T17:19:10.983Z,102936.59
2022-12-18T17:21:42.110Z,102946.38
2022-12-18T17:24:08.985Z,102938.44
2022-12-18T17:26:35.620Z,102941.50
2022-12-18T17:29:02.381Z,102946.03
2022-12-18T17:31:31.936Z,102946.03
2022-12-18T17:33:58.809Z,102943.47
2022-12-18T17:36:28.563Z,102938.31
2022-12-18T17:38:57.727Z,102937.44
2022-12-18T17:41:25.032Z,102937.22
2022-12-18T17:43:57.740Z,102928.38
2022-12-18T17:46:25.893Z,102927.31
2022-12-18T17:48:55.036Z,102921.91
2022-12-18T17:51:21.844Z,102934.16
2022-12-18T17:53:48.774Z,102938.94
2022-12-18T17:56:17.437Z,102933.28
2022-12-18T17:58:44.353Z,102936.97
2022-12-18T18:01:23.213Z,102934.28
2022-12-18T18:03:53.705Z,102933.91
2022-12-18T18:06:21.512Z,102934.16
2022-12-18T18:08:48.874Z,102935.50
2022-12-18T18:11:37.197Z,102938.31
2022-12-18T18:14:12.028Z,102940.00
2022-12-18T18:16:41.677Z,102933.56
2022-12-18T18:19:11.505Z,102931.59
2022-12-18T18:21:41.093Z,102944.06
2022-12-18T18:24:08.436Z,102935.00
2022-12-18T18:26:36.553Z,102927.19
2022-12-18T18:29:06.384Z,102916.28
2022-12-18T18:31:40.745Z,102911.75
2022-12-18T18:34:08.112Z,102905.50
2022-12-18T18:36:34.805Z,102902.94
2022-12-18T18:39:02.331Z,102901.81
2022-12-18T18:41:30.611Z,102896.69
2022-12-18T18:43:58.686Z,102895.56
2022-12-18T18:46:26.243Z,102899.25
2022-12-18T18:48:53.459Z,102891.16
2022-12-18T18:51:21.310Z,102896.81
2022-12-18T18:53:50.075Z,102891.28
2022-12-18T18:59:05.200Z,102895.81
2022-12-18T19:01:32.125Z,102884.78
2022-12-18T19:03:58.842Z,102879.41
2022-12-18T19:06:28.425Z,102859.31
2022-12-18T19:08:56.568Z,102851.00
2022-12-18T19:11:43.447Z,102852.72
2022-12-18T19:14:12.521Z,102847.31
2022-12-18T19:16:39.827Z,102833.97
2022-12-18T19:19:07.620Z,102835.56
2022-12-18T19:21:35.029Z,102832.13
2022-12-18T19:24:02.857Z,102829.44
2022-12-18T19:26:30.379Z,102830.88
2022-12-18T19:29:07.720Z,102843.63
2022-12-18T19:31:36.504Z,102838.25
2022-12-18T19:34:05.183Z,102836.75
2022-12-18T19:36:33.230Z,102836.91
2022-12-18T19:39:01.623Z,102827.81
2022-12-18T19:41:32.071Z,102826.13
2022-12-18T19:44:00.047Z,102826.25
2022-12-18T19:46:28.837Z,102821.72
2022-12-18T19:48:55.507Z,102816.44
2022-12-18T19:51:27.004Z,102830.53
2022-12-18T19:53:58.773Z,102827.97
2022-12-18T19:56:28.930Z,102806.66
2022-12-18T19:58:55.551Z,102810.34
2022-12-18T20:01:24.204Z,102817.19
2022-12-18T20:03:53.756Z,102806.66
2022-12-18T20:06:31.222Z,102801.16
2022-12-18T20:09:01.424Z,102807.78
2022-12-18T20:11:32.176Z,102811.06
2022-12-18T20:13:58.938Z,102792.47
2022-12-18T20:16:25.665Z,102796.00
2022-12-18T20:18:52.449Z,102795.16
2022-12-18T20:21:19.711Z,102792.34
2022-12-18T20:23:46.419Z,102805.81
2022-12-18T20:26:13.053Z,102798.97
2022-12-18T20:28:40.412Z,102804.34
2022-12-18T20:31:13.448Z,102797.59
2022-12-18T20:33:42.219Z,102795.88
2022-12-18T20:36:15.377Z,102800.28
2022-12-18T20:38:43.280Z,102794.16
2022-12-18T20:41:16.378Z,102796.47
2022-12-18T20:43:43.821Z,102804.69
2022-12-18T20:46:13.632Z,102810.09
2022-12-18T20:48:40.740Z,102808.38
2022-12-18T20:51:19.497Z,102813.28
2022-12-18T20:53:47.698Z,102811.44
2022-12-18T20:56:21.648Z,102806.19
2022-12-18T20:58:51.803Z,102795.75
2022-12-18T21:01:21.525Z,102785.09
2022-12-18T21:03:49.452Z,102777.75
2022-12-18T21:06:18.229Z,102770.66
2022-12-18T21:08:45.032Z,102763.28
2022-12-18T21:11:35.937Z,102766.72
2022-12-18T21:14:03.868Z,102761.44
2022-12-18T21:16:31.044Z,102757.91
2022-12-18T21:18:57.831Z,102765.00
2022-12-18T21:21:26.964Z,102759.28
2022-12-18T21:23:54.021Z,102750.53
2022-12-18T21:26:26.297Z,102752.78
2022-12-18T21:29:04.669Z,102752.66
2022-12-18T21:31:34.895Z,102758.75
2022-12-18T21:34:02.631Z,102747.97
2022-12-18T21:36:30.389Z,102742.25
2022-12-18T21:38:57.994Z,102751.75
2022-12-18T21:41:44.642Z,102749.78
2022-12-18T21:44:13.868Z,102753.66
2022-12-18T21:46:43.158Z,102743.19
2022-12-18T21:49:10.793Z,102741.41
2022-12-18T21:51:37.950Z,102736.81
2022-12-18T21:54:04.813Z,102731.44
2022-12-18T21:56:51.984Z,102722.41
2022-12-18T21:59:24.197Z,102720.25
2022-12-18T22:01:52.683Z,102735.25
2022-12-18T22:04:20.564Z,102721.00
2022-12-18T22:06:49.020Z,102728.97
2022-12-18T22:09:18.457Z,102727.25
2022-12-18T22:11:45.167Z,102729.72
2022-12-18T22:14:12.409Z,102717.06
2022-12-18T22:16:39.424Z,102724.44
2022-12-18T22:19:06.579Z,102725.88
2022-12-18T22:21:35.950Z,102736.69
2022-12-18T22:24:07.937Z,102726.59
2022-12-18T22:26:40.086Z,102718.47
2022-12-18T22:29:26.776Z,102717.03
2022-12-18T22:31:53.351Z,102715.63
2022-12-18T22:34:22.982Z,102707.91
2022-12-18T22:36:50.874Z,102685.88
2022-12-18T22:39:23.346Z,102681.19
2022-12-18T22:41:50.991Z,102683.03
2022-12-18T22:44:18.120Z,102679.91
2022-12-18T22:46:50.081Z,102688.59
2022-12-18T22:49:25.808Z,102680.44
2022-12-18T22:51:53.421Z,102660.63
2022-12-18T22:54:20.764Z,102657.38
2022-12-18T22:56:47.440Z,102655.94
2022-12-18T22:59:19.468Z,102643.28
2022-12-18T23:01:47.115Z,102650.69
2022-12-18T23:04:14.990Z,102642.72
2022-12-18T23:06:42.448Z,102638.88
2022-12-18T23:09:15.437Z,102620.69
2022-12-18T23:11:42.592Z,102621.13
2022-12-18T23:14:09.193Z,102622.25
2022-12-18T23:16:35.880Z,102613.16
2022-12-18T23:19:03.790Z,102617.00
2022-12-18T23:21:30.500Z,102623.00
2022-12-18T23:23:57.170Z,102610.34
2022-12-18T23:26:25.521Z,102617.47
2022-12-18T23:28:53.473Z,102616.75
2022-12-18T23:31:25.912Z,102607.50
2022-12-18T23:33:53.870Z,102614.63
2022-12-18T23:36:21.317Z,102598.41
2022-12-18T23:38:49.672Z,102605.09
2022-12-18T23:41:17.586Z,102601.41
2022-12-18T23:43:44.460Z,102587.44
2022-12-18T23:46:23.644Z,102572.78
2022-12-18T23:48:51.038Z,102581.19
2022-12-18T23:51:20.336Z,102575.63
2022-12-18T23:53:46.935Z,102568.50
2022-12-18T23:56:14.628Z,102563.25
2022-12-18T23:58:42.307Z,102562.38
